createdAt,value
2019-05-18T00:00:35.161Z,26.21
2019-05-18T00:03:03.471Z,26.19
2019-05-18T00:05:32.237Z,26.34
2019-05-18T00:08:00.536Z,26.41
2019-05-18T00:10:28.849Z,25.97
2019-05-18T00:12:57.150Z,26.25
2019-05-18T00:15:25.517Z,26.10
2019-05-18T00:17:53.831Z,26.35
2019-05-18T00:20:22.132Z,26.22
2019-05-18T00:22:50.450Z,25.48
2019-05-18T00:25:18.750Z,25.63
2019-05-18T00:27:47.447Z,24.68
2019-05-18T00:30:16.115Z,25.86
2019-05-18T00:32:44.724Z,25.28
2019-05-18T00:35:16.589Z,25.12
2019-05-18T00:37:44.858Z,25.32
2019-05-18T00:40:13.266Z,24.28
2019-05-18T00:42:41.833Z,24.07
2019-05-18T00:45:10.469Z,24.54
2019-05-18T00:47:41.754Z,24.58
2019-05-18T00:50:09.387Z,24.73
2019-05-18T00:52:37.676Z,25.22
2019-05-18T00:55:07.829Z,24.91
2019-05-18T00:57:36.122Z,24.92
2019-05-18T01:00:07.384Z,24.57
2019-05-18T01:02:35.666Z,24.90
2019-05-18T01:05:06.791Z,24.45
2019-05-18T01:07:35.152Z,24.80
2019-05-18T01:10:04.915Z,24.59
2019-05-18T01:12:33.277Z,24.36
2019-05-18T01:15:01.965Z,25.31
2019-05-18T01:17:30.332Z,24.31
2019-05-18T01:19:58.741Z,25.03
2019-05-18T01:22:27.159Z,24.87
2019-05-18T01:24:55.460Z,25.11
2019-05-18T01:27:23.778Z,24.32
2019-05-18T01:29:52.139Z,25.61
2019-05-18T01:32:20.722Z,25.81
2019-05-18T01:34:49.088Z,24.29
2019-05-18T01:37:17.422Z,24.35
2019-05-18T01:39:46.091Z,23.91
2019-05-18T01:42:14.377Z,23.96
2019-05-18T01:44:42.900Z,22.61
2019-05-18T01:47:11.636Z,23.74
2019-05-18T01:49:39.978Z,23.63
2019-05-18T01:52:08.264Z,23.07
2019-05-18T01:54:36.643Z,22.79
2019-05-18T01:57:04.949Z,23.85
2019-05-18T01:59:33.246Z,23.72
2019-05-18T02:02:01.568Z,24.19
2019-05-18T02:04:29.865Z,23.50
2019-05-18T02:06:58.489Z,23.88
2019-05-18T02:09:26.787Z,24.54
2019-05-18T02:11:55.458Z,24.93
2019-05-18T02:14:23.756Z,24.20
2019-05-18T02:16:52.079Z,24.82
2019-05-18T02:19:20.379Z,25.12
2019-05-18T02:21:48.675Z,25.02
2019-05-18T02:24:16.988Z,24.08
2019-05-18T02:26:45.285Z,25.06
2019-05-18T02:29:13.714Z,25.63
2019-05-18T02:31:42.012Z,25.24
2019-05-18T02:34:10.325Z,24.55
2019-05-18T02:36:38.635Z,23.82
2019-05-18T02:39:07.872Z,23.15
2019-05-18T02:41:36.269Z,22.95
2019-05-18T02:44:05.518Z,23.30
2019-05-18T02:46:33.890Z,24.72
2019-05-18T02:49:02.202Z,25.10
2019-05-18T02:51:30.494Z,24.70
2019-05-18T02:53:59.663Z,23.95
2019-05-18T02:56:27.957Z,24.99
2019-05-18T02:58:56.278Z,25.67
2019-05-18T03:01:24.931Z,24.97
2019-05-18T03:03:53.313Z,25.66
2019-05-18T03:06:21.749Z,24.85
2019-05-18T03:08:50.082Z,25.20
2019-05-18T03:11:18.563Z,25.62
2019-05-18T03:13:47.077Z,25.50
2019-05-18T03:16:15.740Z,25.00
2019-05-18T03:18:44.427Z,24.83
2019-05-18T03:21:12.886Z,24.69
2019-05-18T03:23:41.504Z,24.69
2019-05-18T03:26:11.141Z,24.58
2019-05-18T03:28:39.396Z,24.85
2019-05-18T03:31:07.871Z,24.79
2019-05-18T03:33:36.774Z,25.67
2019-05-18T03:36:05.235Z,24.99
2019-05-18T03:38:33.523Z,24.81
2019-05-18T03:41:01.862Z,25.09
2019-05-18T03:43:30.166Z,25.46
2019-05-18T03:45:58.709Z,25.21
2019-05-18T03:48:27.031Z,25.80
2019-05-18T03:50:55.326Z,25.69
2019-05-18T03:53:24.018Z,24.67
2019-05-18T03:55:52.323Z,25.31
2019-05-18T03:58:20.642Z,25.59
2019-05-18T04:00:48.946Z,24.28
2019-05-18T04:03:17.340Z,25.44
2019-05-18T04:05:45.639Z,25.74
2019-05-18T04:08:13.968Z,26.08
2019-05-18T04:10:42.258Z,26.01
2019-05-18T04:13:10.554Z,25.47
2019-05-18T04:15:38.895Z,25.14
2019-05-18T04:18:07.185Z,24.85
2019-05-18T04:20:35.496Z,24.07
2019-05-18T04:23:04.087Z,24.35
2019-05-18T04:25:32.479Z,24.13
2019-05-18T04:28:01.027Z,24.51
2019-05-18T04:30:29.349Z,24.87
2019-05-18T04:32:57.635Z,25.06
2019-05-18T04:35:26.010Z,24.50
2019-05-18T04:37:54.305Z,25.10
2019-05-18T04:40:22.776Z,25.20
2019-05-18T04:42:51.077Z,24.73
2019-05-18T04:45:19.437Z,25.10
2019-05-18T04:47:48.859Z,25.74
2019-05-18T04:50:17.498Z,25.21
2019-05-18T04:52:45.819Z,25.22
2019-05-18T04:55:14.585Z,24.02
2019-05-18T04:57:42.922Z,25.38
2019-05-18T05:00:12.379Z,24.59
2019-05-18T05:02:40.775Z,25.25
2019-05-18T05:05:09.328Z,25.42
2019-05-18T05:07:37.641Z,25.94
2019-05-18T05:10:07.222Z,25.31
2019-05-18T05:12:35.510Z,25.44
2019-05-18T05:15:04.864Z,26.10
2019-05-18T05:17:33.167Z,25.92
2019-05-18T05:20:01.489Z,26.53
2019-05-18T05:22:29.838Z,26.85
2019-05-18T05:24:58.554Z,25.74
2019-05-18T05:27:26.929Z,25.25
2019-05-18T05:29:55.432Z,25.40
2019-05-18T05:32:24.112Z,24.88
2019-05-18T05:34:52.410Z,25.75
2019-05-18T05:37:20.737Z,26.73
2019-05-18T05:39:49.041Z,26.74
2019-05-18T05:42:17.343Z,27.99
2019-05-18T05:44:45.659Z,28.16
2019-05-18T05:47:13.952Z,27.69
2019-05-18T05:49:42.371Z,28.21
2019-05-18T05:52:11.054Z,27.58
2019-05-18T05:54:39.463Z,27.20
2019-05-18T05:57:07.839Z,27.04
2019-05-18T05:59:36.244Z,27.60
2019-05-18T06:02:04.548Z,27.89
2019-05-18T06:04:32.840Z,28.24
2019-05-18T06:07:01.155Z,28.20
2019-05-18T06:09:29.802Z,27.15
2019-05-18T06:11:58.128Z,27.59
2019-05-18T06:14:26.472Z,27.99
2019-05-18T06:16:54.867Z,27.07
2019-05-18T06:19:23.196Z,27.74
2019-05-18T06:21:51.530Z,28.75
2019-05-18T06:24:19.925Z,27.55
2019-05-18T06:26:48.380Z,28.31
2019-05-18T06:29:16.783Z,27.75
2019-05-18T06:31:45.150Z,28.11
2019-05-18T06:34:13.447Z,28.01
2019-05-18T06:36:41.766Z,28.39
2019-05-18T06:39:10.065Z,27.15
2019-05-18T06:41:38.699Z,27.92
2019-05-18T06:44:07.563Z,28.80
2019-05-18T06:46:35.905Z,27.83
2019-05-18T06:49:04.273Z,28.33
2019-05-18T06:51:32.954Z,28.78
2019-05-18T06:54:01.680Z,29.21
2019-05-18T06:56:30.318Z,29.18
2019-05-18T06:58:59.708Z,28.49
2019-05-18T07:01:28.085Z,28.90
2019-05-18T07:03:56.401Z,29.08
2019-05-18T07:06:24.771Z,29.43
2019-05-18T07:08:53.095Z,29.49
2019-05-18T07:11:21.393Z,28.67
2019-05-18T07:13:49.882Z,29.35
2019-05-18T07:16:18.184Z,29.28
2019-05-18T07:18:46.560Z,28.71
2019-05-18T07:21:22.382Z,29.55
2019-05-18T07:23:45.039Z,29.16
2019-05-18T07:26:13.466Z,30.33
2019-05-18T07:28:41.834Z,28.91
2019-05-18T07:31:10.549Z,29.25
2019-05-18T07:33:39.138Z,30.02
2019-05-18T07:36:07.505Z,29.82
2019-05-18T07:38:35.832Z,30.50
2019-05-18T07:41:04.336Z,30.63
2019-05-18T07:43:32.639Z,30.47
2019-05-18T07:46:00.969Z,29.72
2019-05-18T07:48:29.485Z,29.90
2019-05-18T07:50:57.777Z,30.38
2019-05-18T07:53:26.102Z,30.02
2019-05-18T07:55:54.568Z,28.45
2019-05-18T07:58:23.244Z,30.20
2019-05-18T08:00:51.687Z,29.62
2019-05-18T08:03:19.998Z,29.49
2019-05-18T08:05:48.322Z,29.75
2019-05-18T08:08:16.786Z,30.23
2019-05-18T08:10:45.111Z,31.32
2019-05-18T08:13:13.722Z,31.14
2019-05-18T08:15:42.114Z,28.74
2019-05-18T08:18:10.483Z,29.94
2019-05-18T08:20:38.826Z,30.87
2019-05-18T08:23:07.207Z,30.93
2019-05-18T08:25:35.577Z,31.07
2019-05-18T08:28:03.942Z,31.33
2019-05-18T08:30:32.303Z,31.59
2019-05-18T08:33:00.621Z,30.39
2019-05-18T08:35:28.924Z,30.71
2019-05-18T08:37:57.303Z,31.06
2019-05-18T08:40:25.603Z,31.08
2019-05-18T08:42:54.070Z,29.06
2019-05-18T08:45:22.372Z,30.64
2019-05-18T08:47:50.694Z,32.09
2019-05-18T08:50:19.459Z,30.47
2019-05-18T08:52:48.467Z,31.86
2019-05-18T08:55:16.924Z,31.26
2019-05-18T08:57:45.212Z,30.17
2019-05-18T09:00:13.863Z,31.90
2019-05-18T09:02:42.172Z,32.34
2019-05-18T09:05:11.035Z,32.19
2019-05-18T09:07:39.337Z,32.84
2019-05-18T09:10:08.497Z,32.77
2019-05-18T09:12:36.859Z,33.20
2019-05-18T09:15:07.423Z,32.32
2019-05-18T09:17:35.710Z,33.21
2019-05-18T09:20:06.288Z,33.45
2019-05-18T09:22:34.650Z,32.46
2019-05-18T09:25:04.012Z,33.94
2019-05-18T09:27:32.371Z,33.61
2019-05-18T09:30:00.688Z,33.90
2019-05-18T09:32:29.165Z,34.19
2019-05-18T09:34:57.574Z,33.27
2019-05-18T09:37:26.089Z,34.59
2019-05-18T09:39:54.392Z,35.58
2019-05-18T09:42:22.764Z,33.63
2019-05-18T09:44:51.091Z,35.61
2019-05-18T09:47:19.499Z,31.72
2019-05-18T09:49:47.817Z,33.48
2019-05-18T09:52:16.474Z,34.27
2019-05-18T09:54:44.791Z,34.25
2019-05-18T09:57:13.160Z,34.16
2019-05-18T09:59:41.484Z,33.99
2019-05-18T10:02:09.850Z,34.90
2019-05-18T10:04:38.178Z,35.46
2019-05-18T10:07:06.552Z,34.60
2019-05-18T10:09:39.318Z,35.29
2019-05-18T10:12:04.979Z,34.88
2019-05-18T10:14:33.279Z,34.54
2019-05-18T10:17:01.618Z,35.70
2019-05-18T10:19:29.971Z,36.19
2019-05-18T10:21:58.294Z,34.48
2019-05-18T10:24:26.590Z,34.24
2019-05-18T10:26:54.919Z,35.85
2019-05-18T10:29:23.636Z,36.08
2019-05-18T10:31:51.935Z,34.15
2019-05-18T10:34:20.526Z,35.95
2019-05-18T10:36:48.821Z,35.27
2019-05-18T10:39:17.137Z,34.82
2019-05-18T10:41:45.504Z,35.32
2019-05-18T10:44:14.122Z,34.65
2019-05-18T10:46:42.488Z,35.44
2019-05-18T10:49:10.804Z,36.44
2019-05-18T10:51:39.111Z,37.00
2019-05-18T10:54:07.766Z,37.32
2019-05-18T10:56:36.098Z,35.38
2019-05-18T10:59:04.453Z,35.42
2019-05-18T11:01:33.218Z,36.91
2019-05-18T11:04:01.576Z,36.55
2019-05-18T11:06:29.878Z,37.02
2019-05-18T11:08:58.213Z,35.79
2019-05-18T11:11:26.510Z,37.17
2019-05-18T11:13:55.229Z,37.27
2019-05-18T11:16:23.911Z,37.20
2019-05-18T11:18:52.205Z,37.43
2019-05-18T11:21:20.526Z,36.93
2019-05-18T11:23:48.963Z,37.53
2019-05-18T11:26:17.468Z,36.46
2019-05-18T11:28:45.835Z,37.85
2019-05-18T11:31:14.228Z,37.20
2019-05-18T11:33:42.518Z,36.97
2019-05-18T11:36:11.021Z,34.77
2019-05-18T11:38:39.396Z,38.04
2019-05-18T11:41:08.241Z,38.12
2019-05-18T11:43:36.776Z,38.65
2019-05-18T11:46:05.424Z,40.75
2019-05-18T11:48:33.743Z,38.25
2019-05-18T11:51:02.108Z,37.36
2019-05-18T11:53:30.415Z,38.19
2019-05-18T11:55:58.733Z,36.71
2019-05-18T11:58:27.054Z,38.45
2019-05-18T12:00:55.418Z,39.59
2019-05-18T12:03:23.826Z,38.41
2019-05-18T12:05:52.119Z,40.49
2019-05-18T12:08:20.469Z,36.87
2019-05-18T12:10:48.758Z,36.50
2019-05-18T12:13:17.118Z,37.62
2019-05-18T12:15:45.438Z,40.20
2019-05-18T12:18:14.168Z,39.47
2019-05-18T12:20:43.124Z,40.98
2019-05-18T12:23:11.456Z,41.05
2019-05-18T12:25:39.756Z,39.71
2019-05-18T12:28:08.100Z,40.06
2019-05-18T12:30:36.730Z,38.38
2019-05-18T12:33:05.075Z,38.13
2019-05-18T12:35:33.365Z,41.57
2019-05-18T12:38:02.064Z,39.24
2019-05-18T12:40:30.440Z,41.12
2019-05-18T12:42:58.797Z,40.35
2019-05-18T12:45:27.500Z,42.26
2019-05-18T12:47:55.803Z,40.69
2019-05-18T12:50:24.492Z,41.54
2019-05-18T12:52:52.871Z,39.17
2019-05-18T12:55:21.842Z,39.92
2019-05-18T12:57:50.206Z,37.59
2019-05-18T13:00:19.272Z,41.45
2019-05-18T13:02:47.655Z,41.74
2019-05-18T13:05:16.804Z,42.99
2019-05-18T13:07:45.196Z,39.46
2019-05-18T13:10:14.137Z,38.74
2019-05-18T13:12:42.521Z,39.87
2019-05-18T13:15:12.423Z,39.29
2019-05-18T13:17:40.746Z,42.40
2019-05-18T13:20:11.017Z,42.03
2019-05-18T13:22:39.734Z,41.32
2019-05-18T13:25:10.807Z,42.23
2019-05-18T13:27:40.093Z,42.64
2019-05-18T13:30:10.952Z,41.26
2019-05-18T13:32:39.734Z,40.75
2019-05-18T13:35:08.672Z,43.22
2019-05-18T13:37:37.130Z,40.65
2019-05-18T13:40:07.251Z,39.97
2019-05-18T13:42:35.664Z,39.09
2019-05-18T13:45:05.890Z,41.84
2019-05-18T13:47:34.560Z,42.57
2019-05-18T13:50:03.642Z,41.59
2019-05-18T13:52:31.970Z,41.59
2019-05-18T13:55:04.503Z,40.93
2019-05-18T13:57:30.360Z,44.20
2019-05-18T13:59:58.660Z,42.16
2019-05-18T14:02:27.042Z,44.89
2019-05-18T14:04:55.338Z,45.83
2019-05-18T14:07:23.732Z,39.40
2019-05-18T14:09:52.141Z,41.64
2019-05-18T14:12:20.652Z,40.32
2019-05-18T14:14:48.986Z,39.28
2019-05-18T14:17:17.505Z,38.05
2019-05-18T14:19:45.853Z,38.75
2019-05-18T14:22:15.088Z,40.29
2019-05-18T14:24:43.547Z,43.27
2019-05-18T14:27:11.846Z,41.97
2019-05-18T14:29:40.163Z,43.10
2019-05-18T14:32:10.981Z,43.22
2019-05-18T14:34:38.981Z,42.26
2019-05-18T14:37:07.358Z,41.06
2019-05-18T14:39:36.099Z,40.96
2019-05-18T14:42:04.787Z,40.16
2019-05-18T14:44:33.186Z,40.44
2019-05-18T14:47:01.497Z,39.79
2019-05-18T14:49:30.187Z,39.07
2019-05-18T14:51:58.497Z,39.11
2019-05-18T14:54:26.899Z,41.36
2019-05-18T14:56:55.249Z,43.72
2019-05-18T14:59:23.636Z,43.50
2019-05-18T15:01:52.022Z,45.40
2019-05-18T15:04:20.732Z,41.23
2019-05-18T15:06:49.088Z,40.91
2019-05-18T15:09:17.703Z,45.56
2019-05-18T15:11:46.058Z,43.07
2019-05-18T15:14:15.323Z,44.36
2019-05-18T15:16:43.974Z,46.31
2019-05-18T15:19:12.419Z,43.60
2019-05-18T15:21:40.724Z,42.50
2019-05-18T15:24:09.065Z,40.43
2019-05-18T15:26:37.354Z,39.71
2019-05-18T15:29:05.666Z,42.09
2019-05-18T15:31:34.876Z,41.34
2019-05-18T15:34:03.374Z,40.60
2019-05-18T15:36:31.724Z,40.91
2019-05-18T15:39:00.020Z,40.38
2019-05-18T15:41:28.368Z,40.75
2019-05-18T15:43:56.634Z,40.14
2019-05-18T15:46:25.232Z,44.37
2019-05-18T15:48:53.645Z,42.40
2019-05-18T15:51:22.044Z,43.74
2019-05-18T15:53:50.398Z,44.13
2019-05-18T15:56:18.793Z,42.14
2019-05-18T15:58:47.158Z,40.05
2019-05-18T16:01:15.467Z,40.80
2019-05-18T16:03:43.786Z,40.23
2019-05-18T16:06:12.079Z,39.11
2019-05-18T16:08:40.506Z,38.45
2019-05-18T16:11:08.794Z,40.42
2019-05-18T16:13:37.196Z,41.77
2019-05-18T16:16:05.955Z,41.05
2019-05-18T16:18:34.344Z,41.53
2019-05-18T16:21:02.700Z,42.02
2019-05-18T16:23:31.113Z,40.97
2019-05-18T16:25:59.824Z,40.91
2019-05-18T16:28:28.228Z,40.72
2019-05-18T16:30:56.542Z,40.72
2019-05-18T16:33:24.876Z,40.32
2019-05-18T16:35:53.172Z,39.80
2019-05-18T16:38:21.547Z,39.62
2019-05-18T16:40:49.873Z,39.19
2019-05-18T16:43:18.566Z,39.76
2019-05-18T16:45:46.894Z,38.52
2019-05-18T16:48:15.384Z,39.39
2019-05-18T16:50:44.460Z,38.00
2019-05-18T16:53:12.844Z,37.71
2019-05-18T16:55:41.152Z,37.29
2019-05-18T16:58:09.774Z,38.37
2019-05-18T17:00:38.147Z,38.33
2019-05-18T17:03:06.463Z,37.82
2019-05-18T17:05:34.832Z,37.18
2019-05-18T17:08:03.182Z,38.07
2019-05-18T17:10:31.897Z,38.32
2019-05-18T17:13:00.242Z,38.19
2019-05-18T17:15:28.679Z,37.21
2019-05-18T17:17:57.131Z,36.49
2019-05-18T17:20:25.545Z,36.36
2019-05-18T17:22:53.882Z,36.14
2019-05-18T17:25:22.200Z,36.69
2019-05-18T17:27:50.869Z,35.63
2019-05-18T17:30:19.257Z,35.95
2019-05-18T17:32:48.614Z,35.26
2019-05-18T17:35:17.352Z,35.47
2019-05-18T17:37:45.746Z,34.26
2019-05-18T17:40:14.558Z,33.31
2019-05-18T17:42:42.993Z,34.83
2019-05-18T17:45:11.859Z,33.17
2019-05-18T17:47:40.227Z,33.62
2019-05-18T17:50:09.315Z,34.19
2019-05-18T17:52:38.077Z,34.13
2019-05-18T17:55:08.408Z,34.49
2019-05-18T17:57:36.806Z,33.36
2019-05-18T18:00:07.297Z,34.23
2019-05-18T18:02:36.004Z,34.39
2019-05-18T18:05:05.999Z,34.08
2019-05-18T18:07:34.366Z,33.17
2019-05-18T18:10:02.716Z,32.32
2019-05-18T18:12:31.045Z,31.86
2019-05-18T18:14:59.401Z,31.52
2019-05-18T18:17:28.173Z,33.03
2019-05-18T18:19:56.480Z,33.39
2019-05-18T18:22:24.966Z,31.96
2019-05-18T18:24:54.147Z,32.60
2019-05-18T18:27:25.182Z,32.72
2019-05-18T18:29:53.111Z,32.59
2019-05-18T18:32:21.517Z,32.10
2019-05-18T18:34:49.930Z,32.10
2019-05-18T18:37:18.436Z,31.78
2019-05-18T18:39:46.815Z,30.92
2019-05-18T18:42:15.215Z,31.97
2019-05-18T18:44:43.800Z,32.52
2019-05-18T18:47:12.304Z,32.67
2019-05-18T18:49:40.593Z,32.91
2019-05-18T18:52:09.268Z,32.11
2019-05-18T18:54:37.564Z,32.18
2019-05-18T18:57:05.977Z,31.98
2019-05-18T18:59:34.499Z,31.84
2019-05-18T19:02:02.970Z,31.25
2019-05-18T19:04:31.291Z,31.34
2019-05-18T19:06:59.757Z,32.06
2019-05-18T19:09:28.507Z,30.98
2019-05-18T19:11:56.892Z,30.79
2019-05-18T19:14:25.274Z,32.02
2019-05-18T19:16:53.616Z,31.14
2019-05-18T19:19:22.005Z,30.28
2019-05-18T19:21:50.370Z,30.70
2019-05-18T19:24:18.866Z,31.39
2019-05-18T19:26:47.173Z,30.44
2019-05-18T19:29:15.497Z,30.91
2019-05-18T19:31:43.816Z,31.52
2019-05-18T19:34:12.119Z,31.02
2019-05-18T19:36:40.582Z,31.56
2019-05-18T19:39:08.902Z,30.96
2019-05-18T19:41:37.292Z,29.95
2019-05-18T19:44:05.739Z,30.31
2019-05-18T19:46:34.105Z,30.64
2019-05-18T19:49:02.479Z,30.48
2019-05-18T19:51:30.828Z,29.75
2019-05-18T19:53:59.207Z,29.61
2019-05-18T19:56:27.576Z,30.32
2019-05-18T19:58:55.895Z,30.33
2019-05-18T20:01:24.587Z,30.51
2019-05-18T20:03:52.909Z,31.57
2019-05-18T20:06:21.242Z,29.26
2019-05-18T20:08:49.580Z,29.66
2019-05-18T20:11:17.947Z,30.14
2019-05-18T20:13:46.585Z,29.14
2019-05-18T20:16:14.951Z,29.84
2019-05-18T20:18:43.311Z,29.62
2019-05-18T20:21:11.714Z,31.36
2019-05-18T20:23:40.097Z,29.21
2019-05-18T20:26:09.029Z,29.43
2019-05-18T20:28:37.331Z,29.85
2019-05-18T20:31:05.729Z,29.14
2019-05-18T20:33:34.359Z,28.53
2019-05-18T20:36:02.683Z,28.56
2019-05-18T20:38:31.344Z,30.07
2019-05-18T20:40:59.651Z,29.46
2019-05-18T20:43:27.944Z,29.05
2019-05-18T20:45:56.244Z,29.39
2019-05-18T20:48:24.565Z,30.27
2019-05-18T20:50:52.869Z,29.69
2019-05-18T20:53:21.182Z,29.98
2019-05-18T20:55:49.547Z,29.69
2019-05-18T20:58:17.873Z,29.57
2019-05-18T21:00:46.244Z,28.71
2019-05-18T21:03:14.575Z,29.74
2019-05-18T21:05:42.892Z,30.64
2019-05-18T21:08:11.280Z,30.21
2019-05-18T21:10:39.571Z,29.55
2019-05-18T21:13:07.868Z,30.71
2019-05-18T21:15:36.262Z,30.00
2019-05-18T21:18:04.734Z,29.50
2019-05-18T21:20:33.328Z,29.02
2019-05-18T21:23:01.631Z,28.97
2019-05-18T21:25:29.974Z,28.66
2019-05-18T21:27:58.341Z,29.23
2019-05-18T21:30:26.741Z,28.80
2019-05-18T21:32:55.092Z,29.43
2019-05-18T21:35:23.388Z,30.52
2019-05-18T21:37:51.723Z,29.52
2019-05-18T21:40:20.091Z,29.48
2019-05-18T21:42:48.412Z,29.61
2019-05-18T21:45:18.274Z,28.59
2019-05-18T21:47:46.661Z,29.07
2019-05-18T21:50:15.526Z,29.04
2019-05-18T21:52:43.956Z,28.55
2019-05-18T21:55:12.690Z,28.49
2019-05-18T21:57:40.982Z,29.57
2019-05-18T22:00:10.863Z,31.44
2019-05-18T22:02:39.232Z,30.17
2019-05-18T22:05:07.897Z,29.25
2019-05-18T22:07:36.202Z,29.75
2019-05-18T22:10:07.282Z,29.48
2019-05-18T22:12:35.970Z,30.12
2019-05-18T22:15:06.947Z,30.43
2019-05-18T22:17:36.886Z,29.98
2019-05-18T22:20:06.139Z,29.17
2019-05-18T22:22:34.475Z,29.31
2019-05-18T22:25:02.780Z,29.05
2019-05-18T22:27:31.110Z,29.53
2019-05-18T22:29:59.782Z,29.80
2019-05-18T22:32:28.092Z,29.18
2019-05-18T22:34:56.391Z,29.79
2019-05-18T22:37:24.712Z,30.42
2019-05-18T22:39:53.071Z,30.82
2019-05-18T22:42:21.974Z,29.54
2019-05-18T22:44:50.340Z,28.65
2019-05-18T22:47:18.643Z,29.44
2019-05-18T22:49:46.961Z,29.20
2019-05-18T22:52:15.325Z,29.24
2019-05-18T22:54:43.647Z,29.30
2019-05-18T22:57:11.937Z,30.37
2019-05-18T22:59:40.259Z,30.01
2019-05-18T23:02:08.653Z,29.02
2019-05-18T23:04:37.139Z,28.61
2019-05-18T23:07:07.131Z,29.08
2019-05-18T23:09:35.460Z,29.47
2019-05-18T23:12:03.902Z,29.00
2019-05-18T23:14:32.207Z,29.08
2019-05-18T23:17:00.532Z,28.87
2019-05-18T23:19:29.139Z,29.05
2019-05-18T23:21:57.814Z,29.24
2019-05-18T23:24:26.115Z,28.81
2019-05-18T23:26:54.446Z,29.13
2019-05-18T23:29:22.753Z,29.70
2019-05-18T23:31:51.458Z,29.54
2019-05-18T23:34:19.766Z,29.31
2019-05-18T23:36:48.102Z,28.99
2019-05-18T23:39:16.702Z,29.09
2019-05-18T23:41:44.991Z,29.66
2019-05-18T23:44:13.313Z,28.60
2019-05-18T23:46:41.611Z,29.64
2019-05-18T23:49:11.112Z,29.71
2019-05-18T23:51:39.704Z,28.47
2019-05-18T23:54:08.010Z,29.58
2019-05-18T23:56:36.327Z,29.54
2019-05-18T23:59:05.188Z,29.79
